sensor_id;sensor_type;location;lat;lon;timestamp;P1;durP1;ratioP1;P2;durP2;ratioP2
48578;SDS011;34357;51.948;6.132;2022-08-01T00:01:50;21.10;;;14.38;;
48578;SDS011;34357;51.948;6.132;2022-08-01T00:04:16;20.75;;;14.80;;
48578;SDS011;34357;51.948;6.132;2022-08-01T00:06:42;26.05;;;17.13;;
48578;SDS011;34357;51.948;6.132;2022-08-01T00:09:07;27.23;;;16.00;;
48578;SDS011;34357;51.948;6.132;2022-08-01T00:11:33;25.45;;;15.88;;
48578;SDS011;34357;51.948;6.132;2022-08-01T00:13:59;21.80;;;15.57;;
48578;SDS011;34357;51.948;6.132;2022-08-01T00:16:24;22.90;;;17.17;;
48578;SDS011;34357;51.948;6.132;2022-08-01T00:18:50;25.13;;;17.00;;
48578;SDS011;34357;51.948;6.132;2022-08-01T00:21:18;24.73;;;18.02;;
48578;SDS011;34357;51.948;6.132;2022-08-01T00:23:43;24.95;;;16.90;;
48578;SDS011;34357;51.948;6.132;2022-08-01T00:26:11;26.60;;;18.35;;
48578;SDS011;34357;51.948;6.132;2022-08-01T00:28:37;25.73;;;18.92;;
48578;SDS011;34357;51.948;6.132;2022-08-01T00:31:03;25.45;;;19.35;;
48578;SDS011;34357;51.948;6.132;2022-08-01T00:33:29;25.40;;;18.73;;
48578;SDS011;34357;51.948;6.132;2022-08-01T00:35:54;25.67;;;18.15;;
48578;SDS011;34357;51.948;6.132;2022-08-01T00:38:21;24.42;;;17.67;;
48578;SDS011;34357;51.948;6.132;2022-08-01T00:40:47;21.23;;;16.80;;
48578;SDS011;34357;51.948;6.132;2022-08-01T00:43:13;20.20;;;15.95;;
48578;SDS011;34357;51.948;6.132;2022-08-01T00:45:39;23.48;;;16.48;;
48578;SDS011;34357;51.948;6.132;2022-08-01T00:48:05;24.02;;;16.75;;
48578;SDS011;34357;51.948;6.132;2022-08-01T00:50:30;21.73;;;15.77;;
48578;SDS011;34357;51.948;6.132;2022-08-01T00:52:57;20.05;;;16.42;;
48578;SDS011;34357;51.948;6.132;2022-08-01T00:55:24;19.55;;;15.45;;
48578;SDS011;34357;51.948;6.132;2022-08-01T00:57:50;21.98;;;16.17;;
48578;SDS011;34357;51.948;6.132;2022-08-01T01:00:16;27.38;;;15.98;;
48578;SDS011;34357;51.948;6.132;2022-08-01T01:02:42;22.05;;;15.98;;
48578;SDS011;34357;51.948;6.132;2022-08-01T01:05:08;21.13;;;15.13;;
48578;SDS011;34357;51.948;6.132;2022-08-01T01:08:08;19.60;;;14.75;;
48578;SDS011;34357;51.948;6.132;2022-08-01T01:10:32;16.92;;;13.52;;
48578;SDS011;34357;51.948;6.132;2022-08-01T01:13:12;21.13;;;14.20;;
48578;SDS011;34357;51.948;6.132;2022-08-01T01:15:56;17.47;;;13.37;;
48578;SDS011;34357;51.948;6.132;2022-08-01T01:18:25;17.33;;;12.77;;
48578;SDS011;34357;51.948;6.132;2022-08-01T01:21:07;17.00;;;11.27;;
48578;SDS011;34357;51.948;6.132;2022-08-01T01:29:30;15.00;;;11.75;;
48578;SDS011;34357;51.948;6.132;2022-08-01T01:34:38;14.68;;;10.65;;
48578;SDS011;34357;51.948;6.132;2022-08-01T01:37:09;13.07;;;11.02;;
48578;SDS011;34357;51.948;6.132;2022-08-01T01:39:40;15.30;;;11.70;;
48578;SDS011;34357;51.948;6.132;2022-08-01T01:42:07;13.52;;;10.88;;
48578;SDS011;34357;51.948;6.132;2022-08-01T01:44:34;15.88;;;11.80;;
48578;SDS011;34357;51.948;6.132;2022-08-01T01:47:01;15.70;;;12.93;;
48578;SDS011;34357;51.948;6.132;2022-08-01T01:49:27;16.10;;;13.20;;
48578;SDS011;34357;51.948;6.132;2022-08-01T01:51:56;21.70;;;14.57;;
48578;SDS011;34357;51.948;6.132;2022-08-01T01:54:23;18.95;;;15.13;;
48578;SDS011;34357;51.948;6.132;2022-08-01T01:56:53;24.75;;;18.38;;
48578;SDS011;34357;51.948;6.132;2022-08-01T01:59:24;20.83;;;17.35;;
48578;SDS011;34357;51.948;6.132;2022-08-01T02:01:52;28.40;;;19.42;;
48578;SDS011;34357;51.948;6.132;2022-08-01T02:04:22;25.25;;;20.60;;
48578;SDS011;34357;51.948;6.132;2022-08-01T02:06:50;23.80;;;19.25;;
48578;SDS011;34357;51.948;6.132;2022-08-01T02:09:17;27.13;;;19.67;;
48578;SDS011;34357;51.948;6.132;2022-08-01T02:11:45;25.30;;;21.13;;
48578;SDS011;34357;51.948;6.132;2022-08-01T02:14:13;27.42;;;20.27;;
48578;SDS011;34357;51.948;6.132;2022-08-01T02:16:41;27.77;;;20.30;;
48578;SDS011;34357;51.948;6.132;2022-08-01T02:19:09;26.95;;;21.00;;
48578;SDS011;34357;51.948;6.132;2022-08-01T02:21:38;24.90;;;21.00;;
48578;SDS011;34357;51.948;6.132;2022-08-01T02:24:14;27.83;;;20.98;;
48578;SDS011;34357;51.948;6.132;2022-08-01T02:27:00;25.77;;;19.70;;
48578;SDS011;34357;51.948;6.132;2022-08-01T02:29:37;28.20;;;20.55;;
48578;SDS011;34357;51.948;6.132;2022-08-01T02:32:07;27.88;;;19.80;;
48578;SDS011;34357;51.948;6.132;2022-08-01T02:34:39;28.40;;;20.42;;
48578;SDS011;34357;51.948;6.132;2022-08-01T02:37:07;32.22;;;19.95;;
48578;SDS011;34357;51.948;6.132;2022-08-01T02:39:35;30.58;;;19.75;;
48578;SDS011;34357;51.948;6.132;2022-08-01T02:42:03;26.52;;;19.67;;
48578;SDS011;34357;51.948;6.132;2022-08-01T02:44:33;26.65;;;18.83;;
48578;SDS011;34357;51.948;6.132;2022-08-01T02:49:39;22.83;;;16.40;;
48578;SDS011;34357;51.948;6.132;2022-08-01T02:52:12;22.38;;;15.70;;
48578;SDS011;34357;51.948;6.132;2022-08-01T02:54:40;20.65;;;15.70;;
48578;SDS011;34357;51.948;6.132;2022-08-01T02:57:08;22.00;;;15.52;;
48578;SDS011;34357;51.948;6.132;2022-08-01T02:59:35;21.48;;;15.73;;
48578;SDS011;34357;51.948;6.132;2022-08-01T03:02:04;20.90;;;14.75;;
48578;SDS011;34357;51.948;6.132;2022-08-01T03:04:35;18.98;;;14.85;;
48578;SDS011;34357;51.948;6.132;2022-08-01T03:07:03;22.38;;;14.57;;
48578;SDS011;34357;51.948;6.132;2022-08-01T03:09:32;18.60;;;14.00;;
48578;SDS011;34357;51.948;6.132;2022-08-01T03:12:06;17.73;;;13.55;;
48578;SDS011;34357;51.948;6.132;2022-08-01T03:14:39;20.85;;;13.95;;
48578;SDS011;34357;51.948;6.132;2022-08-01T03:17:07;22.10;;;14.55;;
48578;SDS011;34357;51.948;6.132;2022-08-01T03:19:35;22.58;;;13.90;;
48578;SDS011;34357;51.948;6.132;2022-08-01T03:22:02;19.67;;;14.57;;
48578;SDS011;34357;51.948;6.132;2022-08-01T03:24:36;21.13;;;14.05;;
48578;SDS011;34357;51.948;6.132;2022-08-01T03:27:03;19.35;;;13.98;;
48578;SDS011;34357;51.948;6.132;2022-08-01T03:29:31;18.50;;;13.20;;
48578;SDS011;34357;51.948;6.132;2022-08-01T03:31:59;18.92;;;12.60;;
48578;SDS011;34357;51.948;6.132;2022-08-01T03:34:26;19.35;;;12.70;;
48578;SDS011;34357;51.948;6.132;2022-08-01T03:36:55;19.38;;;12.90;;
48578;SDS011;34357;51.948;6.132;2022-08-01T03:39:28;15.02;;;11.10;;
48578;SDS011;34357;51.948;6.132;2022-08-01T03:42:00;15.13;;;11.23;;
48578;SDS011;34357;51.948;6.132;2022-08-01T03:44:31;14.52;;;10.45;;
48578;SDS011;34357;51.948;6.132;2022-08-01T03:47:02;15.48;;;10.63;;
48578;SDS011;34357;51.948;6.132;2022-08-01T03:49:32;15.32;;;10.13;;
48578;SDS011;34357;51.948;6.132;2022-08-01T03:52:03;13.93;;;10.38;;
48578;SDS011;34357;51.948;6.132;2022-08-01T03:54:34;12.45;;;9.60;;
48578;SDS011;34357;51.948;6.132;2022-08-01T03:59:30;15.48;;;10.20;;
48578;SDS011;34357;51.948;6.132;2022-08-01T04:01:57;14.13;;;9.63;;
48578;SDS011;34357;51.948;6.132;2022-08-01T04:04:23;11.82;;;9.75;;
48578;SDS011;34357;51.948;6.132;2022-08-01T04:06:50;12.90;;;9.73;;
48578;SDS011;34357;51.948;6.132;2022-08-01T04:09:19;14.15;;;10.05;;
48578;SDS011;34357;51.948;6.132;2022-08-01T04:11:45;10.75;;;8.63;;
48578;SDS011;34357;51.948;6.132;2022-08-01T04:14:12;10.43;;;8.85;;
48578;SDS011;34357;51.948;6.132;2022-08-01T04:16:37;11.27;;;8.20;;
48578;SDS011;34357;51.948;6.132;2022-08-01T04:19:03;9.13;;;7.32;;
48578;SDS011;34357;51.948;6.132;2022-08-01T04:21:32;8.00;;;6.30;;
48578;SDS011;34357;51.948;6.132;2022-08-01T04:24:04;8.73;;;5.88;;
48578;SDS011;34357;51.948;6.132;2022-08-01T04:26:34;6.40;;;4.88;;
48578;SDS011;34357;51.948;6.132;2022-08-01T04:29:02;6.80;;;4.95;;
48578;SDS011;34357;51.948;6.132;2022-08-01T04:31:30;6.32;;;4.80;;
48578;SDS011;34357;51.948;6.132;2022-08-01T04:33:57;6.70;;;5.10;;
48578;SDS011;34357;51.948;6.132;2022-08-01T04:36:26;8.05;;;5.60;;
48578;SDS011;34357;51.948;6.132;2022-08-01T04:38:55;6.03;;;5.13;;
48578;SDS011;34357;51.948;6.132;2022-08-01T04:41:24;5.50;;;5.00;;
48578;SDS011;34357;51.948;6.132;2022-08-01T04:43:50;7.50;;;5.22;;
48578;SDS011;34357;51.948;6.132;2022-08-01T04:46:17;5.53;;;4.85;;
48578;SDS011;34357;51.948;6.132;2022-08-01T04:48:43;5.72;;;5.10;;
48578;SDS011;34357;51.948;6.132;2022-08-01T04:51:16;6.82;;;5.10;;
48578;SDS011;34357;51.948;6.132;2022-08-01T04:53:43;7.93;;;5.38;;
48578;SDS011;34357;51.948;6.132;2022-08-01T04:56:11;5.97;;;5.20;;
48578;SDS011;34357;51.948;6.132;2022-08-01T04:58:41;6.72;;;5.10;;
48578;SDS011;34357;51.948;6.132;2022-08-01T05:01:07;4.85;;;4.35;;
48578;SDS011;34357;51.948;6.132;2022-08-01T05:03:33;5.20;;;4.68;;
48578;SDS011;34357;51.948;6.132;2022-08-01T05:05:59;4.80;;;4.15;;
48578;SDS011;34357;51.948;6.132;2022-08-01T05:08:25;5.93;;;4.70;;
48578;SDS011;34357;51.948;6.132;2022-08-01T05:10:50;4.53;;;3.95;;
48578;SDS011;34357;51.948;6.132;2022-08-01T05:13:17;5.22;;;4.65;;
48578;SDS011;34357;51.948;6.132;2022-08-01T05:15:43;6.13;;;4.85;;
48578;SDS011;34357;51.948;6.132;2022-08-01T05:18:09;6.57;;;5.03;;
48578;SDS011;34357;51.948;6.132;2022-08-01T05:20:35;5.80;;;4.90;;
48578;SDS011;34357;51.948;6.132;2022-08-01T05:23:02;6.78;;;5.10;;
48578;SDS011;34357;51.948;6.132;2022-08-01T05:25:28;7.32;;;5.88;;
48578;SDS011;34357;51.948;6.132;2022-08-01T05:27:54;6.88;;;6.13;;
48578;SDS011;34357;51.948;6.132;2022-08-01T05:30:20;6.88;;;5.63;;
48578;SDS011;34357;51.948;6.132;2022-08-01T05:32:45;8.20;;;5.72;;
48578;SDS011;34357;51.948;6.132;2022-08-01T05:35:11;7.22;;;5.75;;
48578;SDS011;34357;51.948;6.132;2022-08-01T05:37:37;8.15;;;5.75;;
48578;SDS011;34357;51.948;6.132;2022-08-01T05:40:03;7.63;;;6.05;;
48578;SDS011;34357;51.948;6.132;2022-08-01T05:42:29;9.85;;;7.15;;
48578;SDS011;34357;51.948;6.132;2022-08-01T05:44:55;7.13;;;6.40;;
48578;SDS011;34357;51.948;6.132;2022-08-01T05:47:21;7.82;;;6.60;;
48578;SDS011;34357;51.948;6.132;2022-08-01T05:49:47;8.05;;;7.05;;
48578;SDS011;34357;51.948;6.132;2022-08-01T05:52:12;8.15;;;6.72;;
48578;SDS011;34357;51.948;6.132;2022-08-01T05:54:39;9.55;;;7.40;;
48578;SDS011;34357;51.948;6.132;2022-08-01T05:57:05;7.70;;;6.60;;
48578;SDS011;34357;51.948;6.132;2022-08-01T05:59:31;8.10;;;7.25;;
48578;SDS011;34357;51.948;6.132;2022-08-01T06:01:57;8.73;;;7.30;;
48578;SDS011;34357;51.948;6.132;2022-08-01T06:04:22;9.30;;;7.05;;
48578;SDS011;34357;51.948;6.132;2022-08-01T06:06:48;9.32;;;6.38;;
48578;SDS011;34357;51.948;6.132;2022-08-01T06:09:14;7.13;;;6.43;;
48578;SDS011;34357;51.948;6.132;2022-08-01T06:11:40;8.57;;;6.60;;
48578;SDS011;34357;51.948;6.132;2022-08-01T06:14:06;7.57;;;6.30;;
48578;SDS011;34357;51.948;6.132;2022-08-01T06:16:32;6.43;;;5.82;;
48578;SDS011;34357;51.948;6.132;2022-08-01T06:18:57;8.95;;;6.50;;
48578;SDS011;34357;51.948;6.132;2022-08-01T06:21:23;6.13;;;5.57;;
48578;SDS011;34357;51.948;6.132;2022-08-01T06:23:49;7.05;;;5.93;;
48578;SDS011;34357;51.948;6.132;2022-08-01T06:26:17;7.53;;;6.40;;
48578;SDS011;34357;51.948;6.132;2022-08-01T06:28:43;9.75;;;7.90;;
48578;SDS011;34357;51.948;6.132;2022-08-01T06:31:09;8.77;;;7.03;;
48578;SDS011;34357;51.948;6.132;2022-08-01T06:33:36;7.05;;;5.63;;
48578;SDS011;34357;51.948;6.132;2022-08-01T06:36:02;4.93;;;4.30;;
48578;SDS011;34357;51.948;6.132;2022-08-01T06:38:28;11.20;;;2.92;;
48578;SDS011;34357;51.948;6.132;2022-08-01T06:40:54;2.42;;;1.73;;
48578;SDS011;34357;51.948;6.132;2022-08-01T06:43:20;9.07;;;1.58;;
48578;SDS011;34357;51.948;6.132;2022-08-01T06:45:46;3.60;;;1.20;;
48578;SDS011;34357;51.948;6.132;2022-08-01T06:48:12;4.55;;;1.50;;
48578;SDS011;34357;51.948;6.132;2022-08-01T06:50:38;3.42;;;1.20;;
48578;SDS011;34357;51.948;6.132;2022-08-01T06:53:04;2.90;;;1.42;;
48578;SDS011;34357;51.948;6.132;2022-08-01T06:55:30;3.47;;;1.50;;
48578;SDS011;34357;51.948;6.132;2022-08-01T06:57:56;2.10;;;1.10;;
48578;SDS011;34357;51.948;6.132;2022-08-01T07:00:22;4.25;;;1.48;;
48578;SDS011;34357;51.948;6.132;2022-08-01T07:02:50;1.88;;;0.95;;
48578;SDS011;34357;51.948;6.132;2022-08-01T07:05:17;2.50;;;1.27;;
48578;SDS011;34357;51.948;6.132;2022-08-01T07:07:43;10.63;;;1.40;;
48578;SDS011;34357;51.948;6.132;2022-08-01T07:10:09;10.55;;;1.63;;
48578;SDS011;34357;51.948;6.132;2022-08-01T07:12:37;4.93;;;0.98;;
48578;SDS011;34357;51.948;6.132;2022-08-01T07:15:04;2.72;;;1.63;;
48578;SDS011;34357;51.948;6.132;2022-08-01T07:17:31;5.25;;;1.88;;
48578;SDS011;34357;51.948;6.132;2022-08-01T07:19:56;2.75;;;1.40;;
48578;SDS011;34357;51.948;6.132;2022-08-01T07:22:22;6.05;;;1.80;;
48578;SDS011;34357;51.948;6.132;2022-08-01T07:24:48;2.15;;;1.20;;
48578;SDS011;34357;51.948;6.132;2022-08-01T07:27:13;6.47;;;1.80;;
48578;SDS011;34357;51.948;6.132;2022-08-01T07:29:39;3.95;;;1.40;;
48578;SDS011;34357;51.948;6.132;2022-08-01T07:32:05;6.75;;;2.10;;
48578;SDS011;34357;51.948;6.132;2022-08-01T07:34:30;6.63;;;2.35;;
48578;SDS011;34357;51.948;6.132;2022-08-01T07:36:56;3.30;;;1.90;;
48578;SDS011;34357;51.948;6.132;2022-08-01T07:39:22;11.63;;;3.00;;
48578;SDS011;34357;51.948;6.132;2022-08-01T07:41:48;10.05;;;3.00;;
48578;SDS011;34357;51.948;6.132;2022-08-01T07:44:13;8.55;;;2.30;;
48578;SDS011;34357;51.948;6.132;2022-08-01T07:46:39;7.60;;;2.30;;
48578;SDS011;34357;51.948;6.132;2022-08-01T07:49:05;7.95;;;2.08;;
48578;SDS011;34357;51.948;6.132;2022-08-01T07:51:30;5.78;;;2.53;;
48578;SDS011;34357;51.948;6.132;2022-08-01T07:53:56;12.40;;;2.83;;
48578;SDS011;34357;51.948;6.132;2022-08-01T07:56:22;3.38;;;2.00;;
48578;SDS011;34357;51.948;6.132;2022-08-01T07:58:49;2.72;;;2.33;;
48578;SDS011;34357;51.948;6.132;2022-08-01T08:01:15;4.75;;;1.80;;
48578;SDS011;34357;51.948;6.132;2022-08-01T08:03:41;5.10;;;2.60;;
48578;SDS011;34357;51.948;6.132;2022-08-01T08:06:06;6.88;;;2.10;;
48578;SDS011;34357;51.948;6.132;2022-08-01T08:08:32;5.25;;;2.08;;
48578;SDS011;34357;51.948;6.132;2022-08-01T08:11:00;5.97;;;2.05;;
48578;SDS011;34357;51.948;6.132;2022-08-01T08:13:26;8.20;;;2.38;;
48578;SDS011;34357;51.948;6.132;2022-08-01T08:15:52;8.93;;;2.55;;
48578;SDS011;34357;51.948;6.132;2022-08-01T08:18:18;12.85;;;2.67;;
48578;SDS011;34357;51.948;6.132;2022-08-01T08:20:44;6.70;;;2.47;;
48578;SDS011;34357;51.948;6.132;2022-08-01T08:23:10;4.75;;;2.50;;
48578;SDS011;34357;51.948;6.132;2022-08-01T08:25:54;9.52;;;2.67;;
48578;SDS011;34357;51.948;6.132;2022-08-01T08:28:20;12.38;;;2.80;;
48578;SDS011;34357;51.948;6.132;2022-08-01T08:30:46;5.13;;;2.60;;
48578;SDS011;34357;51.948;6.132;2022-08-01T08:33:12;5.40;;;2.55;;
48578;SDS011;34357;51.948;6.132;2022-08-01T08:35:40;6.15;;;1.80;;
48578;SDS011;34357;51.948;6.132;2022-08-01T08:38:06;3.22;;;1.90;;
48578;SDS011;34357;51.948;6.132;2022-08-01T08:40:32;4.05;;;1.77;;
48578;SDS011;34357;51.948;6.132;2022-08-01T08:43:03;5.18;;;1.85;;
48578;SDS011;34357;51.948;6.132;2022-08-01T08:45:30;7.07;;;2.13;;
48578;SDS011;34357;51.948;6.132;2022-08-01T08:47:57;3.85;;;2.00;;
48578;SDS011;34357;51.948;6.132;2022-08-01T08:50:24;7.20;;;2.17;;
48578;SDS011;34357;51.948;6.132;2022-08-01T08:52:50;4.10;;;2.00;;
48578;SDS011;34357;51.948;6.132;2022-08-01T08:55:21;7.57;;;2.00;;
48578;SDS011;34357;51.948;6.132;2022-08-01T08:57:49;3.58;;;1.85;;
48578;SDS011;34357;51.948;6.132;2022-08-01T09:00:16;4.05;;;1.75;;
48578;SDS011;34357;51.948;6.132;2022-08-01T09:02:43;4.85;;;1.92;;
48578;SDS011;34357;51.948;6.132;2022-08-01T09:05:09;3.75;;;2.00;;
48578;SDS011;34357;51.948;6.132;2022-08-01T09:07:36;6.75;;;2.10;;
48578;SDS011;34357;51.948;6.132;2022-08-01T09:10:02;4.85;;;2.13;;
48578;SDS011;34357;51.948;6.132;2022-08-01T09:12:28;5.95;;;1.88;;
48578;SDS011;34357;51.948;6.132;2022-08-01T09:14:54;4.57;;;2.00;;
48578;SDS011;34357;51.948;6.132;2022-08-01T09:17:19;3.08;;;2.05;;
48578;SDS011;34357;51.948;6.132;2022-08-01T09:19:50;6.60;;;2.13;;
48578;SDS011;34357;51.948;6.132;2022-08-01T09:22:18;4.32;;;2.60;;
48578;SDS011;34357;51.948;6.132;2022-08-01T09:25:00;7.03;;;2.50;;
48578;SDS011;34357;51.948;6.132;2022-08-01T09:27:31;7.60;;;3.30;;
48578;SDS011;34357;51.948;6.132;2022-08-01T09:30:11;5.47;;;2.78;;
48578;SDS011;34357;51.948;6.132;2022-08-01T09:32:55;8.43;;;3.78;;
48578;SDS011;34357;51.948;6.132;2022-08-01T09:35:35;6.78;;;2.75;;
48578;SDS011;34357;51.948;6.132;2022-08-01T09:38:12;6.30;;;2.40;;
48578;SDS011;34357;51.948;6.132;2022-08-01T09:40:44;5.50;;;2.13;;
48578;SDS011;34357;51.948;6.132;2022-08-01T09:43:11;5.00;;;2.17;;
48578;SDS011;34357;51.948;6.132;2022-08-01T09:45:37;6.68;;;2.65;;
48578;SDS011;34357;51.948;6.132;2022-08-01T09:48:06;4.32;;;2.67;;
48578;SDS011;34357;51.948;6.132;2022-08-01T09:50:39;5.63;;;2.97;;
48578;SDS011;34357;51.948;6.132;2022-08-01T09:53:07;6.25;;;2.65;;
48578;SDS011;34357;51.948;6.132;2022-08-01T09:55:34;4.97;;;2.47;;
48578;SDS011;34357;51.948;6.132;2022-08-01T09:57:59;5.28;;;2.70;;
48578;SDS011;34357;51.948;6.132;2022-08-01T10:00:26;6.55;;;3.13;;
48578;SDS011;34357;51.948;6.132;2022-08-01T10:02:52;5.15;;;3.00;;
48578;SDS011;34357;51.948;6.132;2022-08-01T10:05:18;9.23;;;3.55;;
48578;SDS011;34357;51.948;6.132;2022-08-01T10:07:59;7.65;;;3.80;;
48578;SDS011;34357;51.948;6.132;2022-08-01T10:10:29;6.35;;;3.70;;
48578;SDS011;34357;51.948;6.132;2022-08-01T10:12:56;6.55;;;3.30;;
48578;SDS011;34357;51.948;6.132;2022-08-01T10:15:24;5.15;;;3.25;;
48578;SDS011;34357;51.948;6.132;2022-08-01T10:17:54;10.27;;;4.20;;
48578;SDS011;34357;51.948;6.132;2022-08-01T10:20:23;10.25;;;4.50;;
48578;SDS011;34357;51.948;6.132;2022-08-01T10:22:51;7.38;;;3.60;;
48578;SDS011;34357;51.948;6.132;2022-08-01T10:25:22;9.30;;;3.90;;
48578;SDS011;34357;51.948;6.132;2022-08-01T10:27:50;8.38;;;4.43;;
48578;SDS011;34357;51.948;6.132;2022-08-01T10:30:20;7.37;;;4.53;;
48578;SDS011;34357;51.948;6.132;2022-08-01T10:32:46;9.10;;;3.97;;
48578;SDS011;34357;51.948;6.132;2022-08-01T10:35:12;10.52;;;4.93;;
48578;SDS011;34357;51.948;6.132;2022-08-01T10:37:43;10.15;;;4.72;;
48578;SDS011;34357;51.948;6.132;2022-08-01T10:40:14;9.05;;;4.25;;
48578;SDS011;34357;51.948;6.132;2022-08-01T10:42:44;8.95;;;3.53;;
48578;SDS011;34357;51.948;6.132;2022-08-01T10:45:11;8.77;;;4.38;;
48578;SDS011;34357;51.948;6.132;2022-08-01T10:48:43;7.68;;;3.30;;
48578;SDS011;34357;51.948;6.132;2022-08-01T10:50:48;8.05;;;3.20;;
48578;SDS011;34357;51.948;6.132;2022-08-01T10:55:46;5.75;;;3.03;;
48578;SDS011;34357;51.948;6.132;2022-08-01T10:58:22;4.13;;;2.72;;
48578;SDS011;34357;51.948;6.132;2022-08-01T11:03:39;5.47;;;2.75;;
48578;SDS011;34357;51.948;6.132;2022-08-01T11:06:05;7.22;;;3.08;;
48578;SDS011;34357;51.948;6.132;2022-08-01T11:08:31;7.50;;;2.72;;
48578;SDS011;34357;51.948;6.132;2022-08-01T11:16:35;8.80;;;2.97;;
48578;SDS011;34357;51.948;6.132;2022-08-01T11:19:04;5.97;;;2.30;;
48578;SDS011;34357;51.948;6.132;2022-08-01T11:32:56;6.47;;;3.00;;
48578;SDS011;34357;51.948;6.132;2022-08-01T11:35:22;6.25;;;2.72;;
48578;SDS011;34357;51.948;6.132;2022-08-01T11:37:50;4.97;;;2.42;;
48578;SDS011;34357;51.948;6.132;2022-08-01T11:42:47;8.20;;;3.00;;
48578;SDS011;34357;51.948;6.132;2022-08-01T11:45:14;8.93;;;2.97;;
48578;SDS011;34357;51.948;6.132;2022-08-01T11:47:50;6.45;;;3.72;;
48578;SDS011;34357;51.948;6.132;2022-08-01T11:53:02;6.45;;;2.55;;
48578;SDS011;34357;51.948;6.132;2022-08-01T11:55:29;8.90;;;2.75;;
48578;SDS011;34357;51.948;6.132;2022-08-01T11:58:02;7.47;;;2.80;;
48578;SDS011;34357;51.948;6.132;2022-08-01T12:00:29;5.57;;;2.28;;
48578;SDS011;34357;51.948;6.132;2022-08-01T12:02:59;9.05;;;2.40;;
48578;SDS011;34357;51.948;6.132;2022-08-01T12:05:30;11.35;;;2.90;;
48578;SDS011;34357;51.948;6.132;2022-08-01T12:07:58;6.53;;;2.38;;
48578;SDS011;34357;51.948;6.132;2022-08-01T12:10:26;6.55;;;2.22;;
48578;SDS011;34357;51.948;6.132;2022-08-01T12:12:54;6.78;;;2.25;;
48578;SDS011;34357;51.948;6.132;2022-08-01T12:15:24;5.55;;;1.92;;
48578;SDS011;34357;51.948;6.132;2022-08-01T12:18:00;6.53;;;2.22;;
48578;SDS011;34357;51.948;6.132;2022-08-01T12:20:29;7.22;;;1.92;;
48578;SDS011;34357;51.948;6.132;2022-08-01T12:23:00;6.60;;;1.73;;
48578;SDS011;34357;51.948;6.132;2022-08-01T12:25:33;10.98;;;2.25;;
48578;SDS011;34357;51.948;6.132;2022-08-01T12:28:00;6.28;;;1.55;;
48578;SDS011;34357;51.948;6.132;2022-08-01T12:30:28;10.40;;;1.73;;
48578;SDS011;34357;51.948;6.132;2022-08-01T12:32:56;6.72;;;1.50;;
48578;SDS011;34357;51.948;6.132;2022-08-01T12:35:26;11.25;;;1.60;;
48578;SDS011;34357;51.948;6.132;2022-08-01T12:37:54;7.03;;;1.75;;
48578;SDS011;34357;51.948;6.132;2022-08-01T12:40:31;7.90;;;1.63;;
48578;SDS011;34357;51.948;6.132;2022-08-01T12:43:04;6.80;;;1.80;;
48578;SDS011;34357;51.948;6.132;2022-08-01T12:48:00;4.68;;;1.20;;
48578;SDS011;34357;51.948;6.132;2022-08-01T12:50:28;5.32;;;1.55;;
48578;SDS011;34357;51.948;6.132;2022-08-01T12:52:55;4.32;;;1.50;;
48578;SDS011;34357;51.948;6.132;2022-08-01T12:55:23;8.75;;;1.73;;
48578;SDS011;34357;51.948;6.132;2022-08-01T12:58:02;4.85;;;1.15;;
48578;SDS011;34357;51.948;6.132;2022-08-01T13:00:29;5.85;;;1.67;;
48578;SDS011;34357;51.948;6.132;2022-08-01T13:08:15;4.78;;;1.40;;
48578;SDS011;34357;51.948;6.132;2022-08-01T13:10:45;8.38;;;1.60;;
48578;SDS011;34357;51.948;6.132;2022-08-01T13:13:12;6.53;;;1.50;;
48578;SDS011;34357;51.948;6.132;2022-08-01T13:15:39;7.57;;;1.33;;
48578;SDS011;34357;51.948;6.132;2022-08-01T13:24:02;5.78;;;1.60;;
48578;SDS011;34357;51.948;6.132;2022-08-01T13:26:49;5.43;;;1.65;;
48578;SDS011;34357;51.948;6.132;2022-08-01T13:29:37;6.05;;;1.80;;
48578;SDS011;34357;51.948;6.132;2022-08-01T13:32:18;6.47;;;1.90;;
48578;SDS011;34357;51.948;6.132;2022-08-01T13:34:45;7.50;;;1.48;;
48578;SDS011;34357;51.948;6.132;2022-08-01T13:37:11;10.13;;;1.70;;
48578;SDS011;34357;51.948;6.132;2022-08-01T13:39:37;5.63;;;1.25;;
48578;SDS011;34357;51.948;6.132;2022-08-01T13:42:09;5.95;;;1.42;;
48578;SDS011;34357;51.948;6.132;2022-08-01T13:44:43;8.20;;;1.98;;
48578;SDS011;34357;51.948;6.132;2022-08-01T13:47:11;6.32;;;1.85;;
48578;SDS011;34357;51.948;6.132;2022-08-01T13:49:37;6.10;;;1.52;;
48578;SDS011;34357;51.948;6.132;2022-08-01T13:52:02;5.43;;;1.50;;
48578;SDS011;34357;51.948;6.132;2022-08-01T13:54:31;5.60;;;1.73;;
48578;SDS011;34357;51.948;6.132;2022-08-01T13:56:57;5.60;;;1.35;;
48578;SDS011;34357;51.948;6.132;2022-08-01T13:59:22;7.70;;;1.50;;
48578;SDS011;34357;51.948;6.132;2022-08-01T14:01:48;7.85;;;1.60;;
48578;SDS011;34357;51.948;6.132;2022-08-01T14:04:14;7.97;;;2.03;;
48578;SDS011;34357;51.948;6.132;2022-08-01T14:06:40;6.43;;;1.70;;
48578;SDS011;34357;51.948;6.132;2022-08-01T14:09:06;10.25;;;1.73;;
48578;SDS011;34357;51.948;6.132;2022-08-01T14:11:31;7.40;;;1.88;;
48578;SDS011;34357;51.948;6.132;2022-08-01T14:13:57;6.72;;;1.90;;
48578;SDS011;34357;51.948;6.132;2022-08-01T14:16:23;9.05;;;2.08;;
48578;SDS011;34357;51.948;6.132;2022-08-01T14:18:49;8.80;;;1.90;;
48578;SDS011;34357;51.948;6.132;2022-08-01T14:21:15;8.18;;;2.00;;
48578;SDS011;34357;51.948;6.132;2022-08-01T14:23:41;11.68;;;2.65;;
48578;SDS011;34357;51.948;6.132;2022-08-01T14:26:10;8.70;;;2.03;;
48578;SDS011;34357;51.948;6.132;2022-08-01T14:28:36;11.25;;;2.13;;
48578;SDS011;34357;51.948;6.132;2022-08-01T14:31:02;10.45;;;2.00;;
48578;SDS011;34357;51.948;6.132;2022-08-01T14:33:28;9.23;;;1.95;;
48578;SDS011;34357;51.948;6.132;2022-08-01T14:35:55;7.75;;;1.75;;
48578;SDS011;34357;51.948;6.132;2022-08-01T14:38:21;8.10;;;1.70;;
48578;SDS011;34357;51.948;6.132;2022-08-01T14:40:47;9.13;;;2.28;;
48578;SDS011;34357;51.948;6.132;2022-08-01T14:43:16;6.10;;;1.80;;
48578;SDS011;34357;51.948;6.132;2022-08-01T14:45:45;6.03;;;1.67;;
48578;SDS011;34357;51.948;6.132;2022-08-01T14:48:14;10.63;;;1.52;;
48578;SDS011;34357;51.948;6.132;2022-08-01T14:50:41;7.00;;;1.85;;
48578;SDS011;34357;51.948;6.132;2022-08-01T14:53:07;8.25;;;2.25;;
48578;SDS011;34357;51.948;6.132;2022-08-01T14:55:32;6.22;;;1.77;;
48578;SDS011;34357;51.948;6.132;2022-08-01T14:57:58;6.30;;;1.65;;
48578;SDS011;34357;51.948;6.132;2022-08-01T15:00:24;7.82;;;2.28;;
48578;SDS011;34357;51.948;6.132;2022-08-01T15:02:49;4.68;;;1.55;;
48578;SDS011;34357;51.948;6.132;2022-08-01T15:05:15;9.02;;;2.13;;
48578;SDS011;34357;51.948;6.132;2022-08-01T15:07:41;8.70;;;1.83;;
48578;SDS011;34357;51.948;6.132;2022-08-01T15:10:07;9.20;;;2.00;;
48578;SDS011;34357;51.948;6.132;2022-08-01T15:12:34;12.85;;;2.47;;
48578;SDS011;34357;51.948;6.132;2022-08-01T15:15:00;7.95;;;2.20;;
48578;SDS011;34357;51.948;6.132;2022-08-01T15:17:30;10.98;;;2.20;;
48578;SDS011;34357;51.948;6.132;2022-08-01T15:20:00;10.10;;;2.30;;
48578;SDS011;34357;51.948;6.132;2022-08-01T15:22:28;5.03;;;1.52;;
48578;SDS011;34357;51.948;6.132;2022-08-01T15:24:54;12.50;;;1.90;;
48578;SDS011;34357;51.948;6.132;2022-08-01T15:27:21;5.78;;;1.40;;
48578;SDS011;34357;51.948;6.132;2022-08-01T15:29:47;8.45;;;2.63;;
48578;SDS011;34357;51.948;6.132;2022-08-01T15:32:16;7.10;;;1.73;;
48578;SDS011;34357;51.948;6.132;2022-08-01T15:34:46;6.43;;;1.77;;
48578;SDS011;34357;51.948;6.132;2022-08-01T15:37:13;8.63;;;1.83;;
48578;SDS011;34357;51.948;6.132;2022-08-01T15:39:39;7.60;;;1.40;;
48578;SDS011;34357;51.948;6.132;2022-08-01T15:42:09;5.40;;;1.45;;